createdAt,value
2019-03-20T00:00:35.537Z,4.20
2019-03-20T00:03:05.424Z,4.30
2019-03-20T00:05:34.921Z,4.30
2019-03-20T00:08:04.344Z,4.30
2019-03-20T00:10:34.536Z,4.30
2019-03-20T00:13:04.089Z,4.30
2019-03-20T00:15:34.144Z,4.20
2019-03-20T00:18:04.081Z,4.20
2019-03-20T00:20:33.537Z,4.20
2019-03-20T00:23:03.038Z,4.20
2019-03-20T00:25:32.801Z,4.20
2019-03-20T00:28:02.350Z,4.20
2019-03-20T00:30:31.827Z,4.20
2019-03-20T00:33:01.226Z,4.30
2019-03-20T00:35:31.380Z,4.20
2019-03-20T00:38:01.406Z,4.20
2019-03-20T00:40:31.514Z,4.20
2019-03-20T00:43:01.040Z,4.20
2019-03-20T00:45:30.701Z,4.30
2019-03-20T00:48:00.177Z,4.30
2019-03-20T00:50:29.737Z,4.30
2019-03-20T00:52:59.209Z,4.30
2019-03-20T00:55:29.670Z,4.20
2019-03-20T00:57:59.377Z,4.20
2019-03-20T01:00:28.833Z,4.10
2019-03-20T01:02:58.384Z,4.10
2019-03-20T01:05:28.221Z,4.10
2019-03-20T01:07:57.706Z,4.10
2019-03-20T01:10:27.145Z,4.00
2019-03-20T01:12:57.137Z,4.00
2019-03-20T01:15:26.541Z,4.00
2019-03-20T01:17:55.974Z,4.00
2019-03-20T01:20:25.364Z,4.00
2019-03-20T01:22:54.754Z,4.00
2019-03-20T01:25:24.815Z,4.00
2019-03-20T01:27:54.536Z,4.00
2019-03-20T01:30:34.040Z,4.00
2019-03-20T01:33:05.386Z,3.90
2019-03-20T01:35:34.827Z,3.90
2019-03-20T01:38:04.885Z,3.90
2019-03-20T01:40:34.236Z,3.90
2019-03-20T01:43:03.736Z,3.90
2019-03-20T01:45:33.196Z,3.90
2019-03-20T01:48:03.524Z,3.80
2019-03-20T01:50:33.294Z,3.90
2019-03-20T01:53:03.205Z,3.90
2019-03-20T01:55:32.634Z,3.90
2019-03-20T01:58:02.326Z,3.80
2019-03-20T02:00:32.180Z,3.80
2019-03-20T02:03:01.979Z,3.70
2019-03-20T02:05:36.116Z,3.70
2019-03-20T02:08:02.537Z,3.70
2019-03-20T02:10:31.979Z,3.70
2019-03-20T02:13:01.561Z,3.70
2019-03-20T02:15:38.961Z,3.60
2019-03-20T02:18:02.131Z,3.60
2019-03-20T02:20:32.169Z,3.50
2019-03-20T02:23:02.496Z,3.50
2019-03-20T02:25:32.522Z,3.50
2019-03-20T02:28:02.431Z,3.50
2019-03-20T02:30:31.889Z,3.40
2019-03-20T02:33:01.359Z,3.50
2019-03-20T02:35:30.804Z,3.50
2019-03-20T02:38:00.348Z,3.50
2019-03-20T02:40:30.107Z,3.50
2019-03-20T02:42:59.891Z,3.50
2019-03-20T02:45:29.686Z,3.40
2019-03-20T02:47:59.440Z,3.50
2019-03-20T02:50:29.251Z,3.50
2019-03-20T02:52:58.691Z,3.40
2019-03-20T02:55:28.155Z,3.40
2019-03-20T02:57:58.320Z,3.40
2019-03-20T03:00:27.981Z,3.40
2019-03-20T03:02:57.762Z,3.40
2019-03-20T03:05:27.228Z,3.40
2019-03-20T03:07:56.984Z,3.30
2019-03-20T03:10:26.428Z,3.30
2019-03-20T03:12:56.313Z,3.30
2019-03-20T03:15:26.097Z,3.30
2019-03-20T03:17:56.117Z,3.30
2019-03-20T03:20:25.598Z,3.30
2019-03-20T03:22:55.307Z,3.30
2019-03-20T03:25:25.155Z,3.20
2019-03-20T03:27:54.598Z,3.20
2019-03-20T03:30:24.077Z,3.20
2019-03-20T03:32:53.524Z,3.20
2019-03-20T03:35:22.987Z,3.10
2019-03-20T03:37:52.456Z,3.10
2019-03-20T03:40:21.929Z,3.10
2019-03-20T03:42:51.712Z,3.10
2019-03-20T03:45:21.594Z,3.00
2019-03-20T03:47:51.058Z,3.10
2019-03-20T03:50:20.558Z,3.10
2019-03-20T03:52:50.317Z,3.10
2019-03-20T03:55:19.817Z,3.10
2019-03-20T03:57:49.750Z,3.10
2019-03-20T04:00:19.216Z,3.10
2019-03-20T04:02:49.057Z,3.10
2019-03-20T04:05:19.094Z,3.10
2019-03-20T04:07:49.429Z,3.10
2019-03-20T04:10:18.896Z,3.10
2019-03-20T04:12:48.350Z,3.10
2019-03-20T04:15:18.107Z,3.10
2019-03-20T04:17:47.884Z,3.10
2019-03-20T04:20:17.321Z,3.10
2019-03-20T04:22:46.709Z,3.10
2019-03-20T04:25:16.472Z,3.10
2019-03-20T04:27:45.938Z,3.10
2019-03-20T04:30:15.829Z,3.10
2019-03-20T04:32:45.922Z,3.00
2019-03-20T04:35:15.668Z,3.00
2019-03-20T04:37:45.141Z,3.00
2019-03-20T04:40:14.937Z,3.00
2019-03-20T04:42:44.411Z,3.00
2019-03-20T04:45:13.964Z,2.90
2019-03-20T04:47:43.814Z,2.90
2019-03-20T04:50:13.261Z,2.90
2019-03-20T04:52:42.710Z,2.80
2019-03-20T04:55:12.476Z,2.90
2019-03-20T04:57:42.554Z,2.80
2019-03-20T05:00:14.291Z,2.90
2019-03-20T05:02:44.045Z,2.80
2019-03-20T05:05:14.368Z,2.90
2019-03-20T05:07:44.465Z,2.80
2019-03-20T05:10:14.078Z,2.80
2019-03-20T05:12:43.621Z,2.90
2019-03-20T05:15:14.022Z,2.90
2019-03-20T05:17:43.713Z,2.90
2019-03-20T05:20:13.432Z,2.80
2019-03-20T05:22:43.168Z,2.80
2019-03-20T05:25:12.626Z,2.80
2019-03-20T05:27:42.058Z,2.80
2019-03-20T05:30:12.998Z,2.70
2019-03-20T05:32:42.553Z,2.70
2019-03-20T05:35:12.753Z,2.70
2019-03-20T05:37:44.221Z,2.80
2019-03-20T05:40:14.101Z,2.80
2019-03-20T05:42:43.877Z,2.80
2019-03-20T05:45:13.803Z,2.90
2019-03-20T05:47:43.605Z,2.80
2019-03-20T05:50:13.977Z,2.80
2019-03-20T05:52:43.657Z,2.80
2019-03-20T05:55:13.637Z,2.90
2019-03-20T05:57:43.105Z,2.90
2019-03-20T06:00:15.003Z,2.90
2019-03-20T06:02:44.744Z,2.90
2019-03-20T06:05:14.260Z,2.90
2019-03-20T06:07:44.169Z,3.00
2019-03-20T06:10:16.995Z,3.00
2019-03-20T06:12:46.440Z,3.00
2019-03-20T06:15:15.830Z,3.10
2019-03-20T06:17:46.964Z,3.10
2019-03-20T06:20:16.612Z,3.20
2019-03-20T06:22:45.973Z,3.20
2019-03-20T06:25:15.611Z,3.30
2019-03-20T06:27:45.050Z,3.30
2019-03-20T06:30:15.352Z,3.30
2019-03-20T06:32:44.753Z,3.50
2019-03-20T06:35:14.221Z,3.70
2019-03-20T06:37:43.746Z,4.00
2019-03-20T06:40:13.424Z,4.20
2019-03-20T06:42:42.897Z,4.40
2019-03-20T06:45:13.206Z,4.50
2019-03-20T06:47:42.710Z,4.80
2019-03-20T06:50:14.192Z,5.10
2019-03-20T06:52:44.133Z,5.30
2019-03-20T06:55:13.888Z,5.40
2019-03-20T06:57:43.469Z,5.40
2019-03-20T07:00:44.180Z,5.40
2019-03-20T07:03:17.778Z,5.40
2019-03-20T07:06:15.801Z,5.40
2019-03-20T07:12:13.979Z,5.40
2019-03-20T07:14:43.645Z,5.50
2019-03-20T07:17:13.446Z,5.50
2019-03-20T07:19:42.903Z,5.60
2019-03-20T07:22:12.670Z,5.60
2019-03-20T07:24:42.129Z,5.60
2019-03-20T07:27:11.513Z,5.70
2019-03-20T07:29:40.885Z,5.70
2019-03-20T07:32:10.984Z,5.70
2019-03-20T07:34:40.348Z,5.70
2019-03-20T07:37:10.717Z,5.70
2019-03-20T07:39:40.142Z,5.70
2019-03-20T07:42:10.748Z,5.70
2019-03-20T07:44:40.185Z,5.80
2019-03-20T07:47:09.560Z,5.90
2019-03-20T07:49:38.942Z,5.90
2019-03-20T07:52:08.397Z,5.90
2019-03-20T07:54:37.873Z,5.90
2019-03-20T07:57:07.329Z,6.00
2019-03-20T07:59:36.781Z,6.10
2019-03-20T08:02:06.420Z,6.20
2019-03-20T08:04:36.899Z,6.20
2019-03-20T08:07:06.375Z,6.30
2019-03-20T08:09:35.928Z,6.40
2019-03-20T08:12:08.329Z,6.50
2019-03-20T08:14:38.185Z,6.40
2019-03-20T08:17:10.882Z,6.50
2019-03-20T08:19:40.872Z,6.50
2019-03-20T08:22:10.650Z,6.60
2019-03-20T08:24:40.131Z,6.60
2019-03-20T08:27:12.466Z,6.80
2019-03-20T08:29:43.313Z,6.90
2019-03-20T08:32:15.097Z,7.00
2019-03-20T08:34:47.279Z,7.10
2019-03-20T08:37:17.392Z,7.20
2019-03-20T08:39:46.853Z,7.30
2019-03-20T08:42:16.269Z,7.30
2019-03-20T08:44:46.515Z,7.40
2019-03-20T08:47:17.760Z,7.60
2019-03-20T08:49:47.793Z,7.70
2019-03-20T08:52:17.497Z,7.80
2019-03-20T08:54:47.205Z,7.70
2019-03-20T08:57:16.570Z,7.80
2019-03-20T08:59:48.265Z,7.80
2019-03-20T09:02:18.094Z,7.90
2019-03-20T09:04:47.562Z,7.90
2019-03-20T09:07:18.573Z,8.00
2019-03-20T09:09:52.982Z,8.00
2019-03-20T09:12:24.532Z,8.10
2019-03-20T09:14:53.999Z,8.20
2019-03-20T09:17:27.215Z,8.20
2019-03-20T09:19:56.741Z,8.30
2019-03-20T09:22:32.186Z,8.50
2019-03-20T09:25:01.600Z,8.60
2019-03-20T09:27:32.221Z,8.80
2019-03-20T09:30:01.697Z,8.80
2019-03-20T09:32:31.139Z,8.90
2019-03-20T09:35:00.952Z,9.00
2019-03-20T09:37:30.705Z,9.10
2019-03-20T09:40:00.611Z,9.20
2019-03-20T09:42:30.074Z,9.50
2019-03-20T09:44:59.556Z,9.50
2019-03-20T09:47:29.247Z,9.70
2019-03-20T09:49:58.954Z,9.70
2019-03-20T09:52:28.448Z,9.90
2019-03-20T09:54:57.890Z,10.00
2019-03-20T09:57:27.306Z,10.10
2019-03-20T09:59:56.753Z,10.30
2019-03-20T10:02:26.889Z,10.40
2019-03-20T10:04:56.719Z,10.60
2019-03-20T10:07:26.187Z,10.90
2019-03-20T10:09:55.585Z,11.10
2019-03-20T10:12:25.178Z,11.40
2019-03-20T10:14:54.926Z,11.50
2019-03-20T10:17:24.641Z,11.40
2019-03-20T10:19:54.101Z,11.50
2019-03-20T10:22:24.062Z,11.70
2019-03-20T10:24:53.517Z,11.80
2019-03-20T10:27:23.173Z,11.90
2019-03-20T10:29:53.089Z,11.70
2019-03-20T10:32:22.462Z,11.90
2019-03-20T10:34:52.299Z,12.00
2019-03-20T10:37:21.680Z,12.00
2019-03-20T10:39:52.644Z,12.10
2019-03-20T10:42:22.073Z,12.20
2019-03-20T10:44:51.472Z,12.30
2019-03-20T10:47:22.765Z,12.40
2019-03-20T10:49:58.576Z,12.70
2019-03-20T10:52:28.367Z,12.90
2019-03-20T10:54:58.797Z,13.20
2019-03-20T10:57:28.704Z,13.10
2019-03-20T10:59:58.472Z,13.00
2019-03-20T11:02:28.429Z,13.10
2019-03-20T11:05:01.962Z,13.20
2019-03-20T11:07:31.741Z,13.30
2019-03-20T11:10:01.111Z,13.30
2019-03-20T11:12:30.585Z,13.50
2019-03-20T11:14:59.944Z,13.80
2019-03-20T11:17:29.375Z,13.80
2019-03-20T11:19:59.006Z,13.80
2019-03-20T11:22:28.530Z,13.90
2019-03-20T11:24:57.969Z,13.90
2019-03-20T11:27:27.777Z,14.00
2019-03-20T11:29:57.818Z,14.30
2019-03-20T11:32:29.177Z,14.40
2019-03-20T11:34:59.468Z,14.40
2019-03-20T11:37:28.858Z,14.50
2019-03-20T11:39:59.478Z,14.50
2019-03-20T11:42:28.985Z,14.60
2019-03-20T11:44:58.938Z,14.90
2019-03-20T11:47:28.870Z,15.50
2019-03-20T11:49:58.364Z,15.90
2019-03-20T11:52:27.941Z,16.30
2019-03-20T11:54:57.337Z,16.40
2019-03-20T11:57:27.165Z,16.10
2019-03-20T11:59:56.570Z,16.10
2019-03-20T12:02:28.355Z,16.10
2019-03-20T12:04:57.285Z,16.10
2019-03-20T12:07:26.975Z,16.10
2019-03-20T12:09:56.425Z,15.80
2019-03-20T12:12:26.186Z,15.50
2019-03-20T12:14:55.626Z,15.30
2019-03-20T12:17:25.102Z,15.10
2019-03-20T12:19:54.878Z,14.70
2019-03-20T12:22:24.383Z,14.60
2019-03-20T12:24:54.088Z,14.70
2019-03-20T12:27:23.473Z,14.60
2019-03-20T12:29:53.926Z,14.80
2019-03-20T12:32:23.473Z,15.00
2019-03-20T12:34:53.208Z,15.30
2019-03-20T12:37:22.644Z,15.50
2019-03-20T12:39:53.403Z,15.60
2019-03-20T12:42:23.113Z,15.60
2019-03-20T12:44:52.546Z,15.50
2019-03-20T12:47:22.000Z,15.20
2019-03-20T12:49:51.700Z,15.00
2019-03-20T12:52:21.113Z,15.10
2019-03-20T12:54:50.926Z,15.10
2019-03-20T12:57:20.377Z,15.10
2019-03-20T12:59:50.137Z,15.00
2019-03-20T13:02:19.588Z,15.00
2019-03-20T13:04:48.932Z,15.00
2019-03-20T13:07:18.328Z,14.90
2019-03-20T13:09:47.692Z,14.70
2019-03-20T13:12:17.145Z,14.60
2019-03-20T13:14:46.594Z,14.30
2019-03-20T13:17:16.061Z,14.10
2019-03-20T13:19:45.488Z,14.20
2019-03-20T13:22:14.892Z,14.10
2019-03-20T13:24:44.716Z,14.10
2019-03-20T13:27:14.145Z,14.10
2019-03-20T13:29:43.941Z,14.20
2019-03-20T13:32:13.518Z,14.30
2019-03-20T13:34:43.022Z,14.40
2019-03-20T13:37:12.473Z,14.50
2019-03-20T13:39:41.982Z,14.50
2019-03-20T13:42:11.373Z,14.40
2019-03-20T13:44:40.856Z,14.50
2019-03-20T13:47:10.235Z,14.70
2019-03-20T13:49:39.938Z,14.70
2019-03-20T13:52:09.401Z,14.80
2019-03-20T13:54:38.845Z,14.90
2019-03-20T13:57:08.459Z,14.90
2019-03-20T13:59:37.913Z,15.00
2019-03-20T14:02:07.392Z,15.00
2019-03-20T14:04:37.107Z,14.90
2019-03-20T14:07:06.583Z,15.00
2019-03-20T14:09:36.365Z,15.00
2019-03-20T14:12:05.839Z,14.90
2019-03-20T14:14:35.281Z,14.90
2019-03-20T14:17:04.736Z,14.80
2019-03-20T14:19:34.422Z,14.60
2019-03-20T14:22:03.889Z,14.60
2019-03-20T14:24:35.956Z,14.60
2019-03-20T14:27:04.876Z,14.50
2019-03-20T14:29:34.295Z,14.50
2019-03-20T14:32:03.696Z,14.40
2019-03-20T14:34:33.367Z,14.40
2019-03-20T14:37:02.886Z,14.40
2019-03-20T14:39:32.433Z,14.40
2019-03-20T14:42:02.321Z,14.40
2019-03-20T14:44:31.883Z,14.20
2019-03-20T14:47:02.515Z,14.20
2019-03-20T14:49:32.715Z,14.10
2019-03-20T14:52:02.805Z,14.00
2019-03-20T14:54:32.510Z,14.10
2019-03-20T14:57:02.951Z,14.10
2019-03-20T14:59:33.910Z,14.10
2019-03-20T15:02:07.596Z,14.10
2019-03-20T15:04:37.377Z,14.10
2019-03-20T15:07:06.874Z,14.00
2019-03-20T15:09:36.308Z,13.90
2019-03-20T15:12:06.113Z,14.10
2019-03-20T15:14:35.531Z,14.00
2019-03-20T15:17:05.029Z,13.90
2019-03-20T15:19:34.429Z,13.90
2019-03-20T15:22:03.827Z,13.80
2019-03-20T15:24:33.664Z,13.70
2019-03-20T15:27:03.477Z,13.80
2019-03-20T15:29:39.347Z,13.90
2019-03-20T15:32:30.598Z,14.00
2019-03-20T15:35:00.435Z,14.00
2019-03-20T15:37:30.363Z,13.80
2019-03-20T15:40:00.481Z,13.80
2019-03-20T15:42:30.386Z,13.70
2019-03-20T15:45:01.136Z,13.60
2019-03-20T15:47:31.458Z,13.60
2019-03-20T15:50:00.994Z,13.50
2019-03-20T15:52:30.675Z,13.40
2019-03-20T15:55:00.332Z,13.30
2019-03-20T15:57:29.825Z,13.20
2019-03-20T15:59:59.233Z,13.20
2019-03-20T16:02:30.611Z,13.10
2019-03-20T16:05:01.608Z,13.10
2019-03-20T16:07:31.396Z,13.10
2019-03-20T16:10:00.864Z,13.20
2019-03-20T16:12:32.117Z,13.10
2019-03-20T16:15:01.708Z,13.00
2019-03-20T16:17:31.462Z,12.90
2019-03-20T16:20:01.683Z,12.80
2019-03-20T16:22:31.264Z,12.80
2019-03-20T16:25:01.137Z,12.80
2019-03-20T16:27:30.597Z,12.80
2019-03-20T16:30:00.321Z,12.80
2019-03-20T16:32:29.773Z,12.80
2019-03-20T16:34:59.244Z,12.70
2019-03-20T16:37:29.132Z,12.70
2019-03-20T16:39:58.847Z,12.70
2019-03-20T16:42:30.532Z,12.70
2019-03-20T16:45:00.355Z,12.70
2019-03-20T16:47:30.833Z,12.60
2019-03-20T16:50:01.088Z,12.60
2019-03-20T16:52:31.830Z,12.60
2019-03-20T16:55:01.621Z,12.50
2019-03-20T16:57:32.116Z,12.50
2019-03-20T17:00:01.578Z,12.50
2019-03-20T17:02:31.409Z,12.40
2019-03-20T17:05:02.957Z,12.30
2019-03-20T17:07:32.476Z,12.20
2019-03-20T17:10:02.214Z,12.10
2019-03-20T17:12:32.208Z,12.10
2019-03-20T17:15:02.413Z,12.00
2019-03-20T17:17:31.950Z,12.00
2019-03-20T17:20:02.009Z,11.90
2019-03-20T17:22:41.607Z,11.90
2019-03-20T17:25:03.541Z,11.80
2019-03-20T17:27:32.963Z,11.80
2019-03-20T17:30:02.685Z,11.70
2019-03-20T17:32:32.688Z,11.70
2019-03-20T17:35:02.597Z,11.60
2019-03-20T17:37:32.420Z,11.50
2019-03-20T17:40:03.169Z,11.40
2019-03-20T17:42:33.000Z,11.40
2019-03-20T17:45:02.475Z,11.30
2019-03-20T17:47:34.133Z,11.20
2019-03-20T17:50:04.077Z,11.10
2019-03-20T17:52:33.619Z,10.90
2019-03-20T17:55:03.473Z,10.90
2019-03-20T17:57:32.908Z,10.80
2019-03-20T18:00:02.316Z,10.70
2019-03-20T18:02:32.138Z,10.60
2019-03-20T18:05:02.773Z,10.50
2019-03-20T18:07:32.255Z,10.40
2019-03-20T18:10:01.722Z,10.30
2019-03-20T18:12:31.332Z,10.10
2019-03-20T18:15:01.522Z,10.00
2019-03-20T18:17:32.226Z,9.90
2019-03-20T18:20:02.010Z,9.70
2019-03-20T18:22:31.613Z,9.60
2019-03-20T18:25:01.601Z,9.50
2019-03-20T18:27:31.150Z,9.50
2019-03-20T18:30:01.050Z,9.40
2019-03-20T18:32:30.511Z,9.30
2019-03-20T18:35:00.370Z,9.30
2019-03-20T18:37:29.897Z,9.20
2019-03-20T18:39:59.396Z,9.10
2019-03-20T18:42:28.857Z,9.00
2019-03-20T18:44:59.548Z,8.90
2019-03-20T18:47:28.972Z,8.80
2019-03-20T18:49:58.416Z,8.70
2019-03-20T18:52:27.916Z,8.60
2019-03-20T18:54:57.389Z,8.60
2019-03-20T18:57:26.900Z,8.60
2019-03-20T18:59:56.365Z,8.60
2019-03-20T19:02:27.713Z,8.50
2019-03-20T19:04:57.129Z,8.50
2019-03-20T19:07:28.185Z,8.50
2019-03-20T19:09:57.697Z,8.50
2019-03-20T19:12:27.164Z,8.50
2019-03-20T19:14:57.013Z,8.50
2019-03-20T19:17:27.781Z,8.50
2019-03-20T19:19:57.333Z,8.60
2019-03-20T19:22:27.913Z,8.60
2019-03-20T19:24:57.402Z,8.60
2019-03-20T19:27:27.265Z,8.60
2019-03-20T19:29:57.068Z,8.60
2019-03-20T19:32:26.448Z,8.60
2019-03-20T19:34:56.228Z,8.70
2019-03-20T19:37:26.410Z,8.70
2019-03-20T19:39:56.512Z,8.70
2019-03-20T19:42:26.013Z,8.60
2019-03-20T19:44:55.946Z,8.60
2019-03-20T19:47:26.785Z,8.60
2019-03-20T19:49:56.221Z,8.60
2019-03-20T19:52:27.482Z,8.50
2019-03-20T19:54:57.018Z,8.50
2019-03-20T19:57:26.596Z,8.40
2019-03-20T19:59:56.112Z,8.40
2019-03-20T20:02:25.609Z,8.40
2019-03-20T20:04:55.063Z,8.40
2019-03-20T20:07:24.865Z,8.30
2019-03-20T20:09:54.470Z,8.30
2019-03-20T20:12:31.305Z,8.20
2019-03-20T20:14:56.058Z,8.20
2019-03-20T20:17:25.569Z,8.10
2019-03-20T20:19:55.786Z,8.10
2019-03-20T20:22:25.517Z,8.00
2019-03-20T20:24:55.433Z,8.00
2019-03-20T20:27:25.233Z,7.90
2019-03-20T20:29:54.702Z,7.90
2019-03-20T20:32:24.249Z,7.80
2019-03-20T20:34:54.046Z,7.70
2019-03-20T20:37:23.788Z,7.70
2019-03-20T20:39:53.816Z,7.60
2019-03-20T20:42:23.664Z,7.60
2019-03-20T20:44:53.056Z,7.60
2019-03-20T20:47:22.512Z,7.50
2019-03-20T20:49:52.661Z,7.50
2019-03-20T20:52:22.550Z,7.40
2019-03-20T20:54:52.098Z,7.40
2019-03-20T20:57:21.857Z,7.40
2019-03-20T20:59:52.477Z,7.40
2019-03-20T21:02:22.041Z,7.30
2019-03-20T21:04:51.693Z,7.30
2019-03-20T21:07:21.410Z,7.20
2019-03-20T21:09:51.221Z,7.20
2019-03-20T21:12:20.794Z,7.10
2019-03-20T21:14:50.165Z,7.10
2019-03-20T21:17:29.989Z,7.00
2019-03-20T21:19:59.897Z,7.00
2019-03-20T21:23:04.951Z,6.90
2019-03-20T21:25:34.961Z,6.90
2019-03-20T21:28:50.173Z,6.80
2019-03-20T21:31:35.912Z,6.80
2019-03-20T21:34:39.012Z,6.70
2019-03-20T21:37:51.476Z,6.70
2019-03-20T21:40:22.601Z,6.70
2019-03-20T21:43:37.886Z,6.60
2019-03-20T21:47:06.598Z,6.60
2019-03-20T21:49:36.664Z,6.60
2019-03-20T21:52:06.902Z,6.50
2019-03-20T21:55:26.556Z,6.50
2019-03-20T21:58:16.722Z,6.40
2019-03-20T22:01:41.908Z,6.40
2019-03-20T22:04:12.179Z,6.40
2019-03-20T22:07:11.794Z,6.40
2019-03-20T22:10:40.325Z,6.40
2019-03-20T22:13:41.330Z,6.40
2019-03-20T22:17:09.814Z,6.40
2019-03-20T22:20:12.550Z,6.30
2019-03-20T22:23:28.383Z,6.30
2019-03-20T22:26:31.673Z,6.20
2019-03-20T22:29:27.148Z,6.20
2019-03-20T22:32:52.599Z,6.10
2019-03-20T22:35:51.205Z,6.00
2019-03-20T22:39:23.765Z,6.00
2019-03-20T22:42:08.609Z,6.00
2019-03-20T22:44:43.797Z,6.00
2019-03-20T22:47:42.281Z,5.90
2019-03-20T22:50:20.642Z,5.90
2019-03-20T22:53:28.569Z,5.90
2019-03-20T22:56:28.054Z,5.80
2019-03-20T22:58:58.052Z,5.80
2019-03-20T23:02:03.290Z,5.80
2019-03-20T23:04:58.750Z,5.90
2019-03-20T23:07:28.973Z,5.90
2019-03-20T23:09:59.126Z,5.90
2019-03-20T23:12:29.069Z,5.80
2019-03-20T23:15:00.323Z,5.80
2019-03-20T23:17:30.434Z,5.70
2019-03-20T23:20:00.583Z,5.70
2019-03-20T23:22:31.003Z,5.60
2019-03-20T23:25:01.002Z,5.60
2019-03-20T23:27:32.355Z,5.50
2019-03-20T23:30:03.106Z,5.50
2019-03-20T23:32:33.479Z,5.50
2019-03-20T23:35:03.465Z,5.50
2019-03-20T23:37:33.725Z,5.50
2019-03-20T23:40:03.744Z,5.40
2019-03-20T23:42:34.365Z,5.40
2019-03-20T23:45:04.382Z,5.30
2019-03-20T23:48:11.849Z,5.30
2019-03-20T23:50:41.870Z,5.30
2019-03-20T23:53:12.528Z,5.40
2019-03-20T23:55:47.634Z,5.30
2019-03-20T23:58:17.633Z,5.40
